Fairview, Tennessee
Current Conditions -  °F | °C
As of 8:53 PM on Wednesday 22 Oct 2014 (Local Time) from KBNA Reporting Station
Clear Clear  
Wind Chill: 51°   Ceiling: Unl
Heat Index: 51°   Visibility: 10mi
Dew Point: 42°   Wind: 6mph
Humidity: 71%   Direction: 30°NNE
Pressure: 30.21"   Gusts: NA
Location:  35.98°N, 87.12°W
Report Text: KBNA 230153Z 03005KT 10SM CLR 11/06 A3021 RMK AO2 SLP230 T01060056
Loading
Personal Weather Stations






























Interactive Weather Map
Tropical Storm Tracking
New forecast layout! Learn more

10-Day Weather Forecast

Advertisements
Track Severe Weather on mobile